powered by Meteolive.it
Dati meteo   Attuali  Passati Ogni 3 ore 7 Giorni 15 Giorni Avvisi Meteo Mappe meteo
Milano / Linate, Italy
Alba: 5:18 AM UTC1
Tramonto: 7:22 PM UTC1
 Lat: 45.42N, Lon: 9.27E
ICAO Usato: LIML
Condizioni Meteo Attuali Aggiornate: 26.04.2018 alle 10:20 LT
Quasi Sereno
Quasi Sereno
Sereno
Quasi Sereno
Temp: 18°C
Umidita': 73%
Direz/Vel. Vento: WSW 04 KTS raffiche
Pressione: 1012 hPa
Punto di rugiada: 13°C
Temperatura percepita: 18°C
Visibilitą: N/D
Temperatura percepita in
presenza di vento (Wind Chill)
:
18°C
T. max (ultime 24 ore): 18°C
T. min (ultime 24 ore): 16°C


METAR ORIGINALE
LIML 260620Z 25004KT 220V330 CAVOK 18/13 Q1012 NOSIG